Time;durP1;ratioP1;P1;durP2;ratioP2;P2;SDS_P1;SDS_P2;PMS_P1;PMS_P2;Temp;Humidity;BMP_temperature;BMP_pressure;BME280_temperature;BME280_humidity;BME280_pressure;Samples;Min_cycle;Max_cycle;Signal;HPM_P1;HPM_P2
2023/02/28 00:00:27;;;;;;;14.13;7.25;;;4.80;48.80;;;;;;5033079;28;20025;-76
2023/02/28 00:02:53;;;;;;;13.32;7.65;;;4.80;48.70;;;;;;5013943;28;20034;-76
2023/02/28 00:05:22;;;;;;;14.93;8.82;;;4.80;48.70;;;;;;5020903;28;20124;-76
2023/02/28 00:07:49;;;;;;;14.07;7.00;;;4.80;48.80;;;;;;5033427;28;20026;-76
2023/02/28 00:10:27;;;;;;;13.50;7.80;;;4.80;48.70;;;;;;5033603;28;20052;-77
2023/02/28 00:12:56;;;;;;;10.38;6.90;;;4.80;48.90;;;;;;5017271;28;20104;-76
2023/02/28 00:15:22;;;;;;;16.63;6.93;;;4.80;48.70;;;;;;5032260;28;20030;-78
2023/02/28 00:17:49;;;;;;;13.35;6.88;;;4.80;48.60;;;;;;5032856;28;20032;-77
2023/02/28 00:20:15;;;;;;;27.13;7.65;;;4.80;48.60;;;;;;5033140;28;20036;-77
2023/02/28 00:22:46;;;;;;;12.25;7.25;;;4.80;48.70;;;;;;5033064;28;20049;-77
2023/02/28 00:25:15;;;;;;;13.82;6.93;;;4.80;48.70;;;;;;5032966;28;20091;-77
2023/02/28 00:27:42;;;;;;;11.15;7.00;;;4.80;48.60;;;;;;5033343;28;20025;-76
2023/02/28 00:30:11;;;;;;;13.95;7.10;;;4.80;48.60;;;;;;5017525;28;20061;-78
2023/02/28 00:32:38;;;;;;;12.07;6.70;;;4.70;48.60;;;;;;5030296;28;20044;-76
2023/02/28 00:35:04;;;;;;;11.25;7.13;;;4.80;48.80;;;;;;5020944;28;20057;-76
2023/02/28 00:37:30;;;;;;;20.65;7.95;;;4.70;48.70;;;;;;5032909;28;20025;-77
2023/02/28 00:39:56;;;;;;;12.95;6.93;;;4.70;48.80;;;;;;5033049;28;20093;-78
2023/02/28 00:42:22;;;;;;;15.10;8.18;;;4.70;48.80;;;;;;5032973;28;20029;-77
2023/02/28 00:44:48;;;;;;;12.18;6.97;;;4.70;49.00;;;;;;5032706;28;20063;-76
2023/02/28 00:47:15;;;;;;;14.30;8.00;;;4.60;49.10;;;;;;5032966;28;20458;-76
2023/02/28 00:49:41;;;;;;;13.40;7.22;;;4.60;49.10;;;;;;5032705;28;20018;-77
2023/02/28 00:52:07;;;;;;;17.70;7.78;;;4.60;49.20;;;;;;5032822;28;20028;-76
2023/02/28 00:54:33;;;;;;;15.95;8.05;;;4.50;49.30;;;;;;5031338;28;20017;-76
2023/02/28 00:56:59;;;;;;;14.35;8.30;;;4.50;49.50;;;;;;5032821;28;20072;-76
2023/02/28 00:59:25;;;;;;;14.23;7.90;;;4.50;49.60;;;;;;5032384;28;20052;-76
2023/02/28 01:01:51;;;;;;;14.18;7.93;;;4.50;49.50;;;;;;5032645;28;20053;-77
2023/02/28 01:04:17;;;;;;;15.77;8.40;;;4.50;49.60;;;;;;5032599;28;20053;-76
2023/02/28 01:06:43;;;;;;;14.35;7.35;;;4.40;49.60;;;;;;5032385;28;20510;-78
2023/02/28 01:09:10;;;;;;;15.75;8.85;;;4.40;49.80;;;;;;5032431;28;20022;-76
2023/02/28 01:11:36;;;;;;;19.65;8.68;;;4.40;49.80;;;;;;5032487;28;20034;-77
2023/02/28 01:14:03;;;;;;;17.30;8.63;;;4.40;49.70;;;;;;5032549;28;20033;-77
2023/02/28 01:16:29;;;;;;;14.52;7.78;;;4.40;49.80;;;;;;5032447;28;20017;-77
2023/02/28 01:18:56;;;;;;;13.07;8.32;;;4.40;49.80;;;;;;5047418;28;20014;-77
2023/02/28 01:21:22;;;;;;;16.20;8.65;;;4.30;50.00;;;;;;5032046;28;20439;-77
2023/02/28 01:23:49;;;;;;;12.23;7.55;;;4.30;50.00;;;;;;5032148;28;20030;-77
2023/02/28 01:26:20;;;;;;;14.00;7.72;;;4.30;50.00;;;;;;5032272;28;20076;-76
2023/02/28 01:28:46;;;;;;;15.38;7.93;;;4.30;50.00;;;;;;5032092;28;20037;-76
2023/02/28 01:31:13;;;;;;;17.60;9.05;;;4.30;50.00;;;;;;5032036;28;20394;-75
2023/02/28 01:33:39;;;;;;;15.25;8.52;;;4.30;50.30;;;;;;5004749;28;20022;-76
2023/02/28 01:36:09;;;;;;;14.05;8.35;;;4.30;50.10;;;;;;5016720;28;20125;-77
2023/02/28 01:38:35;;;;;;;16.80;8.55;;;4.30;50.10;;;;;;5030125;28;20031;-77
2023/02/28 01:41:01;;;;;;;14.60;8.55;;;4.30;50.10;;;;;;5032169;28;20100;-76
2023/02/28 01:43:29;;;;;;;20.67;8.90;;;4.30;50.10;;;;;;5032143;28;20481;-75
2023/02/28 01:45:57;;;;;;;19.02;9.48;;;4.20;50.20;;;;;;5031750;28;20471;-75
2023/02/28 01:48:31;;;;;;;14.63;8.27;;;4.30;50.20;;;;;;5017624;28;20033;-76
2023/02/28 01:51:01;;;;;;;17.42;8.73;;;4.20;50.10;;;;;;5016302;28;20028;-75
2023/02/28 01:53:38;;;;;;;15.07;8.30;;;4.20;50.00;;;;;;5031208;28;20041;-76
2023/02/28 01:56:08;;;;;;;16.15;8.68;;;4.20;49.90;;;;;;5029281;28;20017;-76
2023/02/28 01:58:35;;;;;;;15.10;8.35;;;4.20;49.90;;;;;;5035709;28;20021;-75
2023/02/28 02:01:02;;;;;;;15.73;8.40;;;4.20;50.00;;;;;;5035486;28;20021;-74
2023/02/28 02:03:30;;;;;;;15.73;9.00;;;4.20;49.90;;;;;;5035535;28;20083;-75
2023/02/28 02:05:56;;;;;;;13.55;8.07;;;4.20;49.90;;;;;;5035516;28;20021;-75
2023/02/28 02:08:25;;;;;;;16.88;8.27;;;4.10;49.80;;;;;;5016456;28;20034;-74
2023/02/28 02:11:01;;;;;;;15.13;8.50;;;4.10;49.90;;;;;;5035735;28;20034;-74
2023/02/28 02:13:56;;;;;;;15.63;9.30;;;4.10;50.10;;;;;;5017248;28;20029;-75
2023/02/28 02:16:49;;;;;;;17.80;8.45;;;4.10;49.90;;;;;;5035229;28;20041;-75
2023/02/28 02:19:36;;;;;;;14.27;7.85;;;4.10;49.80;;;;;;5022163;28;20045;-75
2023/02/28 02:22:08;;;;;;;18.02;8.52;;;4.10;49.70;;;;;;5035285;28;20030;-75
2023/02/28 02:25:07;;;;;;;17.70;8.77;;;4.10;49.80;;;;;;5031662;28;20042;-74
2023/02/28 02:28:03;;;;;;;19.58;8.23;;;4.10;49.80;;;;;;4997764;28;20498;-75
2023/02/28 02:31:07;;;;;;;18.65;8.95;;;4.10;49.70;;;;;;5014899;28;20452;-75
2023/02/28 02:33:59;;;;;;;14.90;7.80;;;4.10;49.60;;;;;;4965333;28;20056;-75
2023/02/28 02:36:34;;;;;;;14.82;8.55;;;4.10;49.80;;;;;;5003505;28;20057;-75
2023/02/28 02:39:17;;;;;;;20.90;7.88;;;4.10;49.70;;;;;;5001025;28;20014;-75
2023/02/28 02:41:54;;;;;;;14.95;8.10;;;4.00;49.50;;;;;;5015494;28;20018;-76
2023/02/28 02:44:19;;;;;;;12.43;7.07;;;4.10;49.50;;;;;;5015280;28;20032;-75
2023/02/28 02:46:47;;;;;;;17.80;8.68;;;4.10;49.40;;;;;;5015161;28;20030;-75
2023/02/28 02:49:28;;;;;;;15.90;7.68;;;4.10;49.60;;;;;;5014859;28;20080;-75
2023/02/28 02:51:56;;;;;;;14.55;7.70;;;4.10;50.20;;;;;;5015169;28;20031;-75
2023/02/28 02:54:33;;;;;;;16.83;8.55;;;4.10;49.40;;;;;;5014964;28;20391;-74
2023/02/28 02:57:04;;;;;;;15.35;7.38;;;4.10;49.40;;;;;;4999659;28;20376;-74
2023/02/28 02:59:32;;;;;;;15.65;8.40;;;4.10;49.40;;;;;;5014747;28;20077;-75
2023/02/28 03:02:01;;;;;;;17.85;9.02;;;4.10;49.70;;;;;;5015007;28;20021;-76
2023/02/28 03:04:32;;;;;;;18.50;8.43;;;4.00;49.60;;;;;;5014642;28;20057;-75
2023/02/28 03:06:58;;;;;;;18.08;8.60;;;4.00;49.40;;;;;;5014943;28;20022;-76
2023/02/28 03:09:24;;;;;;;17.67;7.72;;;4.10;49.40;;;;;;5014789;28;20021;-75
2023/02/28 03:11:53;;;;;;;16.65;8.80;;;4.00;49.30;;;;;;5014457;28;20491;-76
2023/02/28 03:14:37;;;;;;;15.45;8.45;;;4.00;49.40;;;;;;5014639;28;20033;-75
2023/02/28 03:17:14;;;;;;;13.02;7.55;;;4.00;49.50;;;;;;4999952;28;20054;-75
2023/02/28 03:20:09;;;;;;;16.20;8.35;;;4.00;49.40;;;;;;5014454;28;20032;-75
2023/02/28 03:22:53;;;;;;;;;;;4.00;49.30;;;;;;5014761;28;20025;-74
2023/02/28 03:25:31;;;;;;;14.93;7.63;;;4.00;49.10;;;;;;5033218;28;19916;-74
2023/02/28 03:28:04;;;;;;;20.95;8.43;;;4.00;49.10;;;;;;5054210;28;20057;-75
2023/02/28 03:30:39;;;;;;;15.77;9.13;;;4.00;49.10;;;;;;5053354;28;20029;-74
2023/02/28 03:33:28;;;;;;;18.02;8.80;;;4.00;49.20;;;;;;5048766;28;20044;-76
2023/02/28 03:36:04;;;;;;;17.05;9.00;;;4.00;49.20;;;;;;5045879;28;20059;-75
2023/02/28 03:38:42;;;;;;;15.93;8.50;;;4.00;49.20;;;;;;5052236;28;20017;-75
2023/02/28 03:41:21;;;;;;;17.45;8.65;;;4.00;49.10;;;;;;5053825;28;20108;-76
2023/02/28 03:44:15;;;;;;;19.80;8.95;;;4.00;49.00;;;;;;5054102;28;20021;-76
2023/02/28 03:47:04;;;;;;;13.98;7.82;;;3.90;49.00;;;;;;5053789;28;20033;-75
2023/02/28 03:49:47;;;;;;;13.90;8.48;;;3.90;49.00;;;;;;5053672;28;20021;-75
2023/02/28 03:52:14;;;;;;;18.33;9.20;;;3.90;49.10;;;;;;5035817;28;20108;-75
2023/02/28 03:54:54;;;;;;;15.23;8.75;;;3.90;49.00;;;;;;5053462;28;20032;-75
2023/02/28 03:57:51;;;;;;;14.68;8.38;;;3.90;49.00;;;;;;5041225;28;20024;-75
2023/02/28 04:00:30;;;;;;;18.17;8.15;;;3.90;49.00;;;;;;5045645;28;20573;-75
2023/02/28 04:02:56;;;;;;;21.10;9.60;;;3.90;49.10;;;;;;5037534;28;20509;-75
2023/02/28 04:05:23;;;;;;;25.10;8.75;;;3.90;49.20;;;;;;5053341;28;20029;-75
2023/02/28 04:07:49;;;;;;;17.05;8.13;;;3.90;49.10;;;;;;5053236;28;20040;-75
2023/02/28 04:10:16;;;;;;;20.00;8.90;;;3.90;49.10;;;;;;5052674;28;20017;-76
2023/02/28 04:12:42;;;;;;;18.17;8.75;;;3.90;49.10;;;;;;5052921;28;20037;-75
2023/02/28 04:15:10;;;;;;;18.63;8.55;;;3.90;49.20;;;;;;5053072;28;20032;-75
2023/02/28 04:17:36;;;;;;;17.80;8.40;;;3.90;49.30;;;;;;5053259;28;20025;-75
2023/02/28 04:20:03;;;;;;;20.40;8.98;;;3.90;49.10;;;;;;5053290;28;20031;-75
2023/02/28 04:22:28;;;;;;;17.08;8.90;;;3.90;49.10;;;;;;5053005;28;20028;-75
2023/02/28 04:24:54;;;;;;;14.70;8.50;;;3.90;49.00;;;;;;5049751;28;20056;-75
2023/02/28 04:27:21;;;;;;;17.25;8.75;;;3.80;49.00;;;;;;5053004;28;20013;-75
2023/02/28 04:29:47;;;;;;;16.45;8.25;;;3.80;49.10;;;;;;5052150;28;20021;-74
2023/02/28 04:32:12;;;;;;;17.88;8.80;;;3.80;49.10;;;;;;5052890;28;20032;-75
2023/02/28 04:34:39;;;;;;;17.42;8.48;;;3.80;48.90;;;;;;5034774;28;20045;-76
2023/02/28 04:37:05;;;;;;;18.92;8.68;;;3.80;48.80;;;;;;5052662;28;20028;-75
2023/02/28 04:39:35;;;;;;;15.15;7.70;;;3.80;48.80;;;;;;5048372;28;20025;-75
2023/02/28 04:42:01;;;;;;;17.95;8.13;;;3.90;48.90;;;;;;5052840;28;20099;-74
2023/02/28 04:44:27;;;;;;;16.58;8.05;;;3.80;48.70;;;;;;5052526;28;20147;-76
2023/02/28 04:46:53;;;;;;;16.20;8.70;;;3.90;48.70;;;;;;5052574;28;20415;-76
2023/02/28 04:49:18;;;;;;;20.27;9.63;;;3.80;48.70;;;;;;5034732;28;20536;-76
2023/02/28 04:51:44;;;;;;;20.15;8.55;;;3.80;48.60;;;;;;5052753;28;20478;-75
2023/02/28 04:54:10;;;;;;;15.48;8.68;;;3.80;48.60;;;;;;5052485;28;20017;-75
2023/02/28 04:56:36;;;;;;;18.02;8.48;;;3.80;48.90;;;;;;5052511;28;20104;-77
2023/02/28 04:59:01;;;;;;;16.70;8.02;;;3.80;48.70;;;;;;5052314;28;20036;-76
2023/02/28 05:01:30;;;;;;;14.07;7.88;;;3.90;48.60;;;;;;5034485;28;20469;-75
2023/02/28 05:03:57;;;;;;;14.27;7.95;;;3.80;48.70;;;;;;5052133;28;20104;-76
2023/02/28 05:06:26;;;;;;;19.48;8.85;;;3.90;48.70;;;;;;5052343;28;20033;-75
2023/02/28 05:08:53;;;;;;;18.58;9.75;;;3.90;48.80;;;;;;5041686;28;20056;-75
2023/02/28 05:11:23;;;;;;;16.40;7.70;;;3.90;48.70;;;;;;5034288;28;20029;-75
2023/02/28 05:13:49;;;;;;;15.80;8.68;;;3.90;48.60;;;;;;5052265;28;20025;-75
2023/02/28 05:16:16;;;;;;;16.73;8.52;;;3.80;48.50;;;;;;5052307;28;20025;-75
2023/02/28 05:18:42;;;;;;;17.95;9.15;;;3.80;48.40;;;;;;5034498;28;20124;-77
2023/02/28 05:21:30;;;;;;;20.15;8.80;;;3.80;48.30;;;;;;5053960;28;20088;-75
2023/02/28 05:23:58;;;;;;;19.35;8.98;;;3.80;48.50;;;;;;5056517;28;20480;-76
2023/02/28 05:26:25;;;;;;;15.80;8.18;;;3.90;48.50;;;;;;5056128;28;20441;-75
2023/02/28 05:28:50;;;;;;;17.15;7.30;;;3.90;48.40;;;;;;5056252;28;20017;-75
2023/02/28 05:31:16;;;;;;;15.75;8.15;;;3.80;48.40;;;;;;5050623;28;20078;-75
2023/02/28 05:33:42;;;;;;;19.48;8.65;;;3.80;48.40;;;;;;5045930;28;20033;-75
2023/02/28 05:36:08;;;;;;;18.95;8.15;;;3.80;48.40;;;;;;5032411;28;20028;-75
2023/02/28 05:38:34;;;;;;;18.42;8.82;;;3.80;48.50;;;;;;5055665;28;20025;-76
2023/02/28 05:41:00;;;;;;;28.52;11.45;;;3.80;48.40;;;;;;5055935;28;20032;-76
2023/02/28 05:43:25;;;;;;;16.50;8.38;;;3.80;48.40;;;;;;5056070;28;20057;-75
2023/02/28 05:45:51;;;;;;;19.23;9.20;;;3.80;48.40;;;;;;5055951;28;20525;-76
2023/02/28 05:48:17;;;;;;;17.73;8.85;;;3.80;48.40;;;;;;5055819;28;20025;-76
2023/02/28 05:50:45;;;;;;;14.20;7.40;;;3.80;48.80;;;;;;5055794;28;20048;-77
2023/02/28 05:53:11;;;;;;;16.45;7.88;;;3.80;48.70;;;;;;5055637;28;20374;-75
2023/02/28 05:55:37;;;;;;;16.73;8.32;;;3.80;48.60;;;;;;5055275;28;20029;-76
2023/02/28 05:58:03;;;;;;;14.27;7.30;;;3.80;48.50;;;;;;5055673;28;20028;-76
2023/02/28 06:00:29;;;;;;;22.50;7.95;;;3.80;48.50;;;;;;5055159;28;20033;-76
2023/02/28 06:02:57;;;;;;;17.77;8.30;;;3.80;48.60;;;;;;5055683;28;20021;-76
2023/02/28 06:05:24;;;;;;;23.88;8.48;;;3.80;48.60;;;;;;5055831;28;20109;-76
2023/02/28 06:07:50;;;;;;;15.65;8.32;;;3.80;48.60;;;;;;5055737;28;20047;-76
2023/02/28 06:10:16;;;;;;;17.00;8.32;;;3.80;48.60;;;;;;5054956;28;20029;-75
2023/02/28 06:12:42;;;;;;;22.70;9.10;;;3.80;48.50;;;;;;5053147;28;20039;-77
2023/02/28 06:15:12;;;;;;;18.83;8.13;;;3.80;48.60;;;;;;5055217;28;20025;-76
2023/02/28 06:17:38;;;;;;;14.55;7.10;;;3.80;48.50;;;;;;5055695;28;20032;-76
2023/02/28 06:20:06;;;;;;;19.88;8.60;;;3.80;49.00;;;;;;5054424;28;20362;-75
2023/02/28 06:22:32;;;;;;;16.73;8.45;;;3.80;48.30;;;;;;5055425;28;20032;-76
2023/02/28 06:24:57;;;;;;;14.63;7.95;;;3.90;48.30;;;;;;5055237;28;20045;-75
2023/02/28 06:27:25;;;;;;;17.80;8.13;;;3.90;48.30;;;;;;5055028;28;20017;-76
2023/02/28 06:29:55;;;;;;;20.60;8.88;;;3.90;48.50;;;;;;5053820;28;20332;-76
2023/02/28 06:32:21;;;;;;;13.45;7.60;;;4.00;48.50;;;;;;5049394;28;20017;-75
2023/02/28 06:34:47;;;;;;;20.90;8.15;;;4.00;48.40;;;;;;5054953;28;20033;-76
2023/02/28 06:37:13;;;;;;;18.98;9.65;;;4.00;48.40;;;;;;5055129;28;20032;-77
2023/02/28 06:39:39;;;;;;;19.67;9.30;;;4.10;48.40;;;;;;5055077;28;20017;-76
2023/02/28 06:42:05;;;;;;;19.92;8.95;;;4.10;48.50;;;;;;5055014;28;20108;-76
2023/02/28 06:44:34;;;;;;;17.02;8.32;;;4.10;48.30;;;;;;5054260;28;20533;-75
2023/02/28 06:47:03;;;;;;;24.65;7.85;;;4.20;48.30;;;;;;5054668;28;20021;-75
2023/02/28 06:49:30;;;;;;;17.83;8.45;;;4.20;48.30;;;;;;5054622;28;20024;-76
2023/02/28 06:51:55;;;;;;;16.60;8.05;;;4.30;48.20;;;;;;5054298;28;20064;-75
2023/02/28 06:54:21;;;;;;;20.33;9.00;;;4.30;48.10;;;;;;5054412;28;20061;-75
2023/02/28 06:56:47;;;;;;;15.75;8.02;;;4.40;48.00;;;;;;5054253;28;20075;-75
2023/02/28 06:59:13;;;;;;;16.17;7.85;;;4.40;48.00;;;;;;5053768;28;20533;-75
2023/02/28 07:01:40;;;;;;;14.57;8.52;;;4.50;47.90;;;;;;5054473;28;20025;-76
2023/02/28 07:04:06;;;;;;;16.88;8.98;;;4.50;47.90;;;;;;5054601;28;20025;-76
2023/02/28 07:06:32;;;;;;;16.35;8.23;;;4.60;48.00;;;;;;5053754;28;20032;-76
2023/02/28 07:08:58;;;;;;;16.58;8.00;;;4.60;47.80;;;;;;5054348;28;20025;-77
2023/02/28 07:11:25;;;;;;;19.55;8.18;;;4.70;47.80;;;;;;5036132;28;20124;-75
2023/02/28 07:13:55;;;;;;;17.27;7.88;;;4.70;47.50;;;;;;5054251;28;20501;-78
2023/02/28 07:16:22;;;;;;;14.73;8.52;;;4.80;47.20;;;;;;5034445;28;20028;-75
2023/02/28 07:18:49;;;;;;;16.00;7.80;;;4.80;46.90;;;;;;5054262;28;20013;-75
2023/02/28 07:21:14;;;;;;;15.43;7.78;;;4.80;47.00;;;;;;5054093;28;20497;-76
2023/02/28 07:23:41;;;;;;;22.58;7.88;;;4.90;46.90;;;;;;5054209;28;20041;-76
2023/02/28 07:26:12;;;;;;;14.70;7.72;;;4.90;46.80;;;;;;5054072;28;20037;-75
2023/02/28 07:28:38;;;;;;;16.10;8.68;;;5.00;46.80;;;;;;5053700;28;20029;-76
2023/02/28 07:31:07;;;;;;;15.40;8.13;;;5.00;46.70;;;;;;5035091;28;20435;-75
2023/02/28 07:33:34;;;;;;;16.25;8.77;;;5.10;46.60;;;;;;5053943;28;20033;-76
2023/02/28 07:36:05;;;;;;;17.35;8.38;;;5.20;46.60;;;;;;5053762;28;20108;-75
2023/02/28 07:38:33;;;;;;;13.38;8.05;;;5.20;46.30;;;;;;5053608;28;20029;-76
2023/02/28 07:41:11;;;;;;;15.82;8.85;;;5.20;46.10;;;;;;5052784;28;20482;-76
2023/02/28 07:43:37;;;;;;;20.27;8.18;;;5.20;46.30;;;;;;5049877;28;20029;-76
2023/02/28 07:46:12;;;;;;;15.13;7.82;;;5.30;46.50;;;;;;5053264;28;20031;-77
2023/02/28 07:48:38;;;;;;;15.82;8.10;;;5.40;46.50;;;;;;5053882;28;20035;-77
2023/02/28 07:51:10;;;;;;;22.10;9.07;;;5.50;46.40;;;;;;5053895;28;20048;-76
2023/02/28 07:53:42;;;;;;;14.32;7.93;;;5.60;46.30;;;;;;5054011;28;20535;-75
2023/02/28 07:56:11;;;;;;;16.17;8.15;;;5.60;46.30;;;;;;5055350;28;20393;-75
2023/02/28 07:58:37;;;;;;;17.48;8.60;;;5.70;46.20;;;;;;5053360;28;20029;-76
2023/02/28 08:01:07;;;;;;;19.30;8.95;;;5.80;45.90;;;;;;5052881;28;20016;-76
2023/02/28 08:03:33;;;;;;;17.08;8.55;;;5.70;45.40;;;;;;5053214;28;20075;-76
2023/02/28 08:05:59;;;;;;;15.07;8.68;;;5.80;45.50;;;;;;5053326;28;20083;-77
2023/02/28 08:08:29;;;;;;;17.23;8.73;;;5.80;45.80;;;;;;5053427;28;20032;-77
2023/02/28 08:10:54;;;;;;;20.10;8.52;;;5.80;45.70;;;;;;5035405;28;20104;-76
2023/02/28 08:13:20;;;;;;;16.02;8.93;;;5.90;45.80;;;;;;5035399;28;20124;-76
2023/02/28 08:15:47;;;;;;;18.83;9.43;;;5.90;45.80;;;;;;5053283;28;20090;-76
2023/02/28 08:18:13;;;;;;;16.85;8.57;;;5.90;45.90;;;;;;5053249;28;20018;-76
2023/02/28 08:20:38;;;;;;;12.77;7.47;;;6.00;45.70;;;;;;5053657;28;20025;-76
2023/02/28 08:23:04;;;;;;;15.02;8.52;;;6.10;45.80;;;;;;5054530;28;20100;-75
2023/02/28 08:25:30;;;;;;;12.15;6.85;;;6.10;45.70;;;;;;5054138;28;20080;-78
2023/02/28 08:27:55;;;;;;;18.65;9.10;;;6.20;45.70;;;;;;5054922;28;20036;-76
2023/02/28 08:30:21;;;;;;;17.85;8.90;;;6.30;45.40;;;;;;5037207;28;20028;-76
2023/02/28 08:32:47;;;;;;;21.73;8.95;;;6.20;45.00;;;;;;5054847;28;20085;-77
2023/02/28 08:35:13;;;;;;;13.68;8.20;;;6.20;45.10;;;;;;5052837;28;20425;-76
2023/02/28 08:37:39;;;;;;;16.60;8.07;;;6.30;45.10;;;;;;5053022;28;20017;-76
2023/02/28 08:40:05;;;;;;;14.98;8.70;;;6.40;45.30;;;;;;5051310;28;20021;-75
2023/02/28 08:42:32;;;;;;;14.20;8.68;;;6.40;45.40;;;;;;5052401;28;20026;-77
2023/02/28 08:44:58;;;;;;;13.85;8.30;;;6.50;45.20;;;;;;5034263;28;20021;-75
2023/02/28 08:47:24;;;;;;;16.10;9.02;;;6.50;44.90;;;;;;5052387;28;20434;-76
2023/02/28 08:49:49;;;;;;;13.68;7.70;;;6.60;44.80;;;;;;5043407;28;20029;-76
2023/02/28 08:52:15;;;;;;;15.63;8.85;;;6.60;44.90;;;;;;5047671;28;20545;-76
2023/02/28 08:54:41;;;;;;;12.65;7.45;;;6.70;45.00;;;;;;5052405;28;20029;-75
2023/02/28 08:57:07;;;;;;;18.95;8.50;;;6.80;45.00;;;;;;5052113;28;20017;-75
2023/02/28 08:59:33;;;;;;;20.02;8.98;;;6.80;44.70;;;;;;5051484;28;20497;-75
2023/02/28 09:01:59;;;;;;;20.67;9.02;;;6.90;44.80;;;;;;5052563;28;20067;-76
2023/02/28 09:04:25;;;;;;;16.15;9.30;;;6.90;44.60;;;;;;5052374;28;20063;-76
2023/02/28 09:06:50;;;;;;;17.75;8.52;;;7.00;44.80;;;;;;5051765;28;20052;-75
2023/02/28 09:09:16;;;;;;;15.43;8.85;;;7.00;44.80;;;;;;5052107;28;20043;-76
2023/02/28 09:11:42;;;;;;;17.20;8.90;;;7.00;44.30;;;;;;5034526;28;20039;-75
2023/02/28 09:14:08;;;;;;;19.13;9.70;;;7.10;44.50;;;;;;5052123;28;20382;-76
2023/02/28 09:16:34;;;;;;;12.98;8.07;;;7.10;44.30;;;;;;5051961;28;20432;-76
2023/02/28 09:19:01;;;;;;;16.50;8.75;;;7.10;44.20;;;;;;5053286;28;20013;-77
2023/02/28 09:21:27;;;;;;;25.70;9.00;;;7.10;44.20;;;;;;5052292;28;20078;-76
2023/02/28 09:23:53;;;;;;;21.25;9.00;;;7.10;44.30;;;;;;5051280;28;20394;-76
2023/02/28 09:26:26;;;;;;;14.63;8.95;;;7.10;44.00;;;;;;5052223;28;20045;-75
2023/02/28 09:28:53;;;;;;;14.38;8.45;;;7.10;43.70;;;;;;5033877;28;20040;-75
2023/02/28 09:31:22;;;;;;;18.73;9.75;;;7.20;43.70;;;;;;5043182;28;20052;-76
2023/02/28 09:33:49;;;;;;;15.77;8.77;;;7.20;44.00;;;;;;5052706;28;20052;-76
2023/02/28 09:36:15;;;;;;;15.73;8.23;;;7.20;43.90;;;;;;5051489;28;21596;-76
2023/02/28 09:38:42;;;;;;;29.85;9.23;;;7.30;44.20;;;;;;5051880;28;20056;-75
2023/02/28 09:41:17;;;;;;;16.58;9.20;;;7.40;44.30;;;;;;5051287;28;20021;-75
2023/02/28 09:43:50;;;;;;;18.80;9.45;;;7.40;43.90;;;;;;5051891;28;20021;-75
2023/02/28 09:46:27;;;;;;;24.58;9.95;;;7.50;44.00;;;;;;5052023;28;20486;-75
2023/02/28 09:48:55;;;;;;;15.88;9.15;;;7.50;43.80;;;;;;5035865;28;20457;-76
2023/02/28 09:51:48;;;;;;;26.50;8.88;;;7.60;43.80;;;;;;5051954;28;20020;-76
2023/02/28 09:54:27;;;;;;;15.85;9.18;;;7.60;43.60;;;;;;5052064;28;20036;-75
2023/02/28 09:57:02;;;;;;;18.15;8.50;;;7.60;43.50;;;;;;5018178;28;20048;-76
2023/02/28 09:59:56;;;;;;;15.50;8.15;;;7.60;43.90;;;;;;5051898;28;20044;-76
2023/02/28 10:02:45;;;;;;;18.35;8.93;;;7.70;44.00;;;;;;5052116;28;20117;-76
2023/02/28 10:05:21;;;;;;;15.23;9.05;;;7.80;44.00;;;;;;5038404;28;20021;-75
2023/02/28 10:08:01;;;;;;;17.02;8.80;;;7.90;43.60;;;;;;5035051;28;20021;-74
2023/02/28 10:10:39;;;;;;;20.42;9.68;;;7.90;43.40;;;;;;5040887;28;20500;-76
2023/02/28 10:13:13;;;;;;;20.77;8.93;;;7.90;43.00;;;;;;5055184;28;20025;-75
2023/02/28 10:15:40;;;;;;;17.60;9.70;;;7.90;43.10;;;;;;5054511;28;20029;-75
2023/02/28 10:18:12;;;;;;;18.08;9.02;;;7.90;43.00;;;;;;5055485;28;20025;-75
2023/02/28 10:20:40;;;;;;;21.40;9.32;;;7.90;42.70;;;;;;5054094;28;20095;-76
2023/02/28 10:23:22;;;;;;;21.02;9.88;;;7.90;42.70;;;;;;5054930;28;20045;-76
2023/02/28 10:26:15;;;;;;;15.90;8.73;;;7.90;42.80;;;;;;5055297;28;20056;-75
2023/02/28 10:28:42;;;;;;;15.30;8.85;;;7.90;43.10;;;;;;5053893;28;20389;-75
2023/02/28 10:31:14;;;;;;;14.20;7.70;;;8.00;43.20;;;;;;5051779;28;20021;-75
2023/02/28 10:33:39;;;;;;;16.95;8.25;;;8.00;43.00;;;;;;5053176;28;20036;-76
2023/02/28 10:36:10;;;;;;;15.13;8.20;;;8.10;43.50;;;;;;5056242;28;20032;-76
2023/02/28 10:38:38;;;;;;;22.77;8.98;;;8.20;43.40;;;;;;5057009;28;20025;-75
2023/02/28 10:41:28;;;;;;;12.52;7.25;;;8.30;43.40;;;;;;5037287;28;20405;-76
2023/02/28 10:44:19;;;;;;;17.58;8.60;;;8.30;43.50;;;;;;5047039;28;20074;-75
2023/02/28 10:46:45;;;;;;;12.93;8.07;;;8.40;43.10;;;;;;5054873;28;20024;-74
2023/02/28 10:49:21;;;;;;;13.73;7.50;;;8.50;43.20;;;;;;5054691;28;20158;-75
2023/02/28 10:51:51;;;;;;;17.33;8.18;;;8.60;42.90;;;;;;5054246;28;20032;-75
2023/02/28 10:54:30;;;;;;;13.38;7.75;;;8.60;42.70;;;;;;5054462;28;20029;-74
2023/02/28 10:57:17;;;;;;;13.63;8.10;;;8.70;42.70;;;;;;5020563;28;20112;-75
2023/02/28 10:59:44;;;;;;;18.58;8.13;;;8.80;42.70;;;;;;5050065;28;20481;-76
2023/02/28 11:02:30;;;;;;;19.48;9.82;;;8.80;42.40;;;;;;5054672;28;20052;-75
2023/02/28 11:04:55;;;;;;;15.45;8.70;;;8.80;41.90;;;;;;5053411;28;20025;-76
2023/02/28 11:07:25;;;;;;;17.83;8.18;;;8.80;41.70;;;;;;5054245;28;20171;-74
2023/02/28 11:09:53;;;;;;;17.05;8.73;;;8.70;41.80;;;;;;5054400;28;20033;-75
2023/02/28 11:12:21;;;;;;;17.02;9.10;;;8.70;41.60;;;;;;5054636;28;20079;-75
2023/02/28 11:15:01;;;;;;;14.65;8.10;;;8.70;41.80;;;;;;5020453;28;20037;-75
2023/02/28 11:17:30;;;;;;;13.20;8.35;;;8.70;42.20;;;;;;5054339;28;20079;-75
2023/02/28 11:20:03;;;;;;;17.67;7.65;;;8.80;42.40;;;;;;5054282;28;20021;-75
2023/02/28 11:22:33;;;;;;;15.23;8.40;;;8.90;42.30;;;;;;5054030;28;20024;-76
2023/02/28 11:25:06;;;;;;;17.67;8.57;;;9.00;42.60;;;;;;5054468;28;20040;-75
2023/02/28 11:27:33;;;;;;;14.45;8.25;;;9.00;42.00;;;;;;5054561;28;20496;-76
2023/02/28 11:30:00;;;;;;;15.63;8.32;;;9.00;41.30;;;;;;5054291;28;20020;-74
2023/02/28 11:32:28;;;;;;;15.07;8.25;;;9.00;41.40;;;;;;5054190;28;20079;-75
2023/02/28 11:35:29;;;;;;;12.68;6.95;;;9.00;41.70;;;;;;5043315;28;20487;-75
2023/02/28 11:37:56;;;;;;;18.95;8.00;;;9.20;42.20;;;;;;5037045;28;20086;-76
2023/02/28 11:40:39;;;;;;;14.60;7.95;;;9.20;41.90;;;;;;5054194;28;20424;-76
2023/02/28 11:43:43;;;;;;;14.13;8.30;;;9.30;42.00;;;;;;5050068;28;20375;-75
2023/02/28 11:46:27;;;;;;;15.80;8.60;;;9.30;41.20;;;;;;5016193;28;20104;-75
2023/02/28 11:49:23;;;;;;;11.83;8.03;;;9.40;41.10;;;;;;5037283;28;20024;-76
2023/02/28 11:52:06;;;;;;;16.15;7.72;;;9.40;41.30;;;;;;5052853;28;20290;-75
2023/02/28 11:54:43;;;;;;;13.77;8.25;;;9.50;41.20;;;;;;5053647;28;20035;-77
2023/02/28 11:57:17;;;;;;;13.52;8.38;;;9.60;41.40;;;;;;5053637;28;20075;-76
2023/02/28 12:00:02;;;;;;;16.23;8.13;;;9.60;41.20;;;;;;5053457;28;20474;-75
2023/02/28 12:02:51;;;;;;;19.02;9.55;;;9.70;41.60;;;;;;5053393;28;20040;-75
2023/02/28 12:05:43;;;;;;;17.75;9.68;;;9.80;41.20;;;;;;5052889;28;20056;-75
2023/02/28 12:08:37;;;;;;;24.55;8.60;;;9.90;40.70;;;;;;5053249;28;20055;-75
2023/02/28 12:11:21;;;;;;;13.65;8.15;;;10.00;40.60;;;;;;5038199;28;20008;-75
2023/02/28 12:14:08;;;;;;;14.52;7.13;;;10.20;40.60;;;;;;5053014;28;20025;-76
2023/02/28 12:17:20;;;;;;;13.32;8.50;;;10.30;40.80;;;;;;5052916;28;20025;-77
2023/02/28 12:19:58;;;;;;;13.18;7.85;;;10.30;40.20;;;;;;5022329;28;20048;-76
2023/02/28 12:22:52;;;;;;;12.50;8.20;;;10.50;40.00;;;;;;5053221;28;20374;-76
2023/02/28 12:25:40;;;;;;;16.35;7.95;;;10.50;39.80;;;;;;5022026;28;20104;-76
2023/02/28 12:28:14;;;;;;;12.27;8.13;;;10.60;40.20;;;;;;5053031;28;20020;-76
2023/02/28 12:31:04;;;;;;;19.30;8.68;;;10.70;40.60;;;;;;5052371;28;20032;-75
2023/02/28 12:33:39;;;;;;;18.48;9.02;;;10.80;40.00;;;;;;5051847;28;20390;-74
2023/02/28 12:36:12;;;;;;;15.60;8.73;;;10.80;39.90;;;;;;5021462;28;20036;-74
2023/02/28 12:38:45;;;;;;;11.85;7.85;;;10.90;39.90;;;;;;5032811;28;20055;-76
2023/02/28 12:41:22;;;;;;;11.77;7.90;;;11.00;39.90;;;;;;5052862;28;20027;-75
2023/02/28 12:44:00;;;;;;;13.35;9.18;;;11.10;39.90;;;;;;5052186;28;20478;-75
2023/02/28 12:46:32;;;;;;;16.73;8.52;;;11.10;39.50;;;;;;5052956;28;20036;-75
2023/02/28 12:49:01;;;;;;;13.18;7.75;;;11.30;39.30;;;;;;5019280;28;20389;-75
2023/02/28 12:51:28;;;;;;;17.33;9.57;;;11.40;39.30;;;;;;5052589;28;20040;-76
2023/02/28 12:54:14;;;;;;;19.38;10.18;;;11.50;38.90;;;;;;5034863;28;20526;-75
2023/02/28 12:56:58;;;;;;;18.27;9.13;;;11.60;38.70;;;;;;5052424;28;20040;-76
2023/02/28 12:59:30;;;;;;;12.75;7.88;;;11.70;38.80;;;;;;5052402;28;20088;-76
2023/02/28 13:02:10;;;;;;;16.15;9.70;;;11.90;38.70;;;;;;5052687;28;20025;-75
2023/02/28 13:04:56;;;;;;;14.07;8.52;;;12.00;37.90;;;;;;5051716;28;20082;-75
2023/02/28 13:07:46;;;;;;;15.43;9.25;;;12.00;37.10;;;;;;5052389;28;20048;-75